sensor_id;sensor_type;location;lat;lon;timestamp;pressure;altitude;pressure_sealevel;temperature;humidity
6094;BME280;19964;42.060;24.700;2022-09-04T00:00:00;97805.09;;;19.93;100.00
6094;BME280;19964;42.060;24.700;2022-09-04T00:02:36;97814.50;;;19.99;100.00
6094;BME280;19964;42.060;24.700;2022-09-04T00:05:06;97819.03;;;19.93;100.00
6094;BME280;19964;42.060;24.700;2022-09-04T00:07:42;97810.28;;;19.98;100.00
6094;BME280;19964;42.060;24.700;2022-09-04T00:10:14;97816.53;;;20.07;100.00
6094;BME280;19964;42.060;24.700;2022-09-04T00:12:44;97819.94;;;20.07;100.00
6094;BME280;19964;42.060;24.700;2022-09-04T00:15:13;97822.53;;;20.12;99.59
6094;BME280;19964;42.060;24.700;2022-09-04T00:17:43;97830.63;;;20.21;97.95
6094;BME280;19964;42.060;24.700;2022-09-04T00:20:13;97823.09;;;20.38;96.30
6094;BME280;19964;42.060;24.700;2022-09-04T00:22:45;97829.63;;;20.40;97.73
6094;BME280;19964;42.060;24.700;2022-09-04T00:25:17;97831.72;;;20.44;98.58
6094;BME280;19964;42.060;24.700;2022-09-04T00:27:47;97832.03;;;20.37;99.19
6094;BME280;19964;42.060;24.700;2022-09-04T00:30:17;97836.19;;;20.14;99.11
6094;BME280;19964;42.060;24.700;2022-09-04T00:32:47;97844.09;;;20.14;98.72
6094;BME280;19964;42.060;24.700;2022-09-04T00:35:21;97846.94;;;20.18;99.00
6094;BME280;19964;42.060;24.700;2022-09-04T00:37:53;97853.03;;;20.18;97.48
6094;BME280;19964;42.060;24.700;2022-09-04T00:40:24;97860.38;;;20.16;97.58
6094;BME280;19964;42.060;24.700;2022-09-04T00:43:01;97856.00;;;20.07;99.20
6094;BME280;19964;42.060;24.700;2022-09-04T00:45:39;97862.47;;;20.19;98.31
6094;BME280;19964;42.060;24.700;2022-09-04T00:48:15;97847.47;;;20.20;98.12
6094;BME280;19964;42.060;24.700;2022-09-04T00:50:58;97854.31;;;20.21;98.76
6094;BME280;19964;42.060;24.700;2022-09-04T00:53:40;97852.22;;;20.13;99.41
6094;BME280;19964;42.060;24.700;2022-09-04T00:56:14;97850.13;;;20.20;99.08
6094;BME280;19964;42.060;24.700;2022-09-04T00:58:47;97858.84;;;20.10;99.82
6094;BME280;19964;42.060;24.700;2022-09-04T01:01:18;97854.50;;;19.96;100.00
6094;BME280;19964;42.060;24.700;2022-09-04T01:03:51;97855.75;;;20.03;99.48
6094;BME280;19964;42.060;24.700;2022-09-04T01:06:26;97860.09;;;19.89;100.00
6094;BME280;19964;42.060;24.700;2022-09-04T01:09:08;97855.34;;;19.52;100.00
6094;BME280;19964;42.060;24.700;2022-09-04T01:11:39;97855.47;;;19.32;100.00
6094;BME280;19964;42.060;24.700;2022-09-04T01:14:10;97862.03;;;19.30;100.00
6094;BME280;19964;42.060;24.700;2022-09-04T01:16:39;97864.13;;;19.28;100.00
6094;BME280;19964;42.060;24.700;2022-09-04T01:19:08;97871.06;;;19.09;100.00
6094;BME280;19964;42.060;24.700;2022-09-04T01:24:31;97868.06;;;18.67;100.00
6094;BME280;19964;42.060;24.700;2022-09-04T01:27:03;97865.19;;;18.58;100.00
6094;BME280;19964;42.060;24.700;2022-09-04T01:29:34;97865.44;;;18.67;100.00
6094;BME280;19964;42.060;24.700;2022-09-04T01:32:06;97863.06;;;18.65;100.00
6094;BME280;19964;42.060;24.700;2022-09-04T01:34:38;97865.44;;;18.61;100.00
6094;BME280;19964;42.060;24.700;2022-09-04T01:37:11;97861.81;;;18.52;100.00
6094;BME280;19964;42.060;24.700;2022-09-04T01:39:41;97865.47;;;18.41;100.00
6094;BME280;19964;42.060;24.700;2022-09-04T01:42:13;97861.81;;;18.27;100.00
6094;BME280;19964;42.060;24.700;2022-09-04T01:44:43;97857.34;;;18.33;100.00
6094;BME280;19964;42.060;24.700;2022-09-04T01:47:10;97862.38;;;17.94;100.00
6094;BME280;19964;42.060;24.700;2022-09-04T01:49:41;97858.44;;;17.76;100.00
6094;BME280;19964;42.060;24.700;2022-09-04T01:52:13;97856.84;;;17.75;100.00
6094;BME280;19964;42.060;24.700;2022-09-04T01:54:48;97861.31;;;17.80;100.00
6094;BME280;19964;42.060;24.700;2022-09-04T01:57:23;97859.22;;;17.87;100.00
6094;BME280;19964;42.060;24.700;2022-09-04T02:00:04;97860.28;;;17.86;100.00
6094;BME280;19964;42.060;24.700;2022-09-04T02:02:35;97863.94;;;17.90;100.00
6094;BME280;19964;42.060;24.700;2022-09-04T02:05:07;97864.44;;;17.87;100.00
6094;BME280;19964;42.060;24.700;2022-09-04T02:07:40;97873.91;;;17.98;100.00
6094;BME280;19964;42.060;24.700;2022-09-04T02:10:11;97875.47;;;18.09;100.00
6094;BME280;19964;42.060;24.700;2022-09-04T02:12:46;97885.69;;;18.21;100.00
6094;BME280;19964;42.060;24.700;2022-09-04T02:15:17;97877.06;;;18.00;100.00
6094;BME280;19964;42.060;24.700;2022-09-04T02:17:49;97874.97;;;17.92;100.00
6094;BME280;19964;42.060;24.700;2022-09-04T02:20:22;97871.28;;;17.98;100.00
6094;BME280;19964;42.060;24.700;2022-09-04T02:22:53;97871.03;;;18.00;100.00
6094;BME280;19964;42.060;24.700;2022-09-04T02:25:25;97877.31;;;17.84;100.00
6094;BME280;19964;42.060;24.700;2022-09-04T02:27:58;97866.81;;;17.78;100.00
6094;BME280;19964;42.060;24.700;2022-09-04T02:30:27;97866.00;;;17.73;100.00
6094;BME280;19964;42.060;24.700;2022-09-04T02:32:58;97871.53;;;17.71;100.00
6094;BME280;19964;42.060;24.700;2022-09-04T02:35:32;97857.91;;;17.79;100.00
6094;BME280;19964;42.060;24.700;2022-09-04T02:38:03;97864.72;;;17.81;100.00
6094;BME280;19964;42.060;24.700;2022-09-04T02:40:36;97860.00;;;17.83;100.00
6094;BME280;19964;42.060;24.700;2022-09-04T02:43:14;97859.75;;;17.69;100.00
6094;BME280;19964;42.060;24.700;2022-09-04T02:45:47;97856.34;;;17.68;100.00
6094;BME280;19964;42.060;24.700;2022-09-04T02:48:17;97851.34;;;17.67;100.00
6094;BME280;19964;42.060;24.700;2022-09-04T02:53:39;97856.78;;;17.45;100.00
6094;BME280;19964;42.060;24.700;2022-09-04T02:56:10;97862.09;;;17.60;100.00
6094;BME280;19964;42.060;24.700;2022-09-04T02:58:49;97866.78;;;17.58;100.00
6094;BME280;19964;42.060;24.700;2022-09-04T03:01:18;97869.16;;;17.55;100.00
6094;BME280;19964;42.060;24.700;2022-09-04T03:03:50;97877.78;;;17.55;100.00
6094;BME280;19964;42.060;24.700;2022-09-04T03:06:22;97868.28;;;17.29;100.00
6094;BME280;19964;42.060;24.700;2022-09-04T03:08:54;97869.56;;;17.22;100.00
6094;BME280;19964;42.060;24.700;2022-09-04T03:11:24;97863.28;;;17.18;100.00
6094;BME280;19964;42.060;24.700;2022-09-04T03:13:55;97852.50;;;17.04;100.00
6094;BME280;19964;42.060;24.700;2022-09-04T03:16:25;97873.81;;;16.76;100.00
6094;BME280;19964;42.060;24.700;2022-09-04T03:19:00;97874.41;;;16.88;100.00
6094;BME280;19964;42.060;24.700;2022-09-04T03:21:31;97878.53;;;16.74;100.00
6094;BME280;19964;42.060;24.700;2022-09-04T03:23:59;97870.63;;;16.64;100.00
6094;BME280;19964;42.060;24.700;2022-09-04T03:26:30;97866.38;;;16.53;100.00
6094;BME280;19964;42.060;24.700;2022-09-04T03:29:03;97866.19;;;16.64;100.00
6094;BME280;19964;42.060;24.700;2022-09-04T03:31:36;97880.13;;;16.75;100.00
6094;BME280;19964;42.060;24.700;2022-09-04T03:34:11;97875.50;;;16.50;100.00
6094;BME280;19964;42.060;24.700;2022-09-04T03:36:42;97869.56;;;16.23;100.00
6094;BME280;19964;42.060;24.700;2022-09-04T03:39:14;97874.59;;;16.30;100.00
6094;BME280;19964;42.060;24.700;2022-09-04T03:41:44;97877.81;;;16.42;100.00
6094;BME280;19964;42.060;24.700;2022-09-04T03:44:19;97874.91;;;16.38;100.00
6094;BME280;19964;42.060;24.700;2022-09-04T03:46:55;97877.13;;;16.20;100.00
6094;BME280;19964;42.060;24.700;2022-09-04T03:49:31;97878.66;;;16.16;100.00
6094;BME280;19964;42.060;24.700;2022-09-04T03:52:08;97881.97;;;16.01;100.00
6094;BME280;19964;42.060;24.700;2022-09-04T03:54:39;97882.44;;;15.98;100.00
6094;BME280;19964;42.060;24.700;2022-09-04T03:59:57;97890.47;;;16.23;100.00
6094;BME280;19964;42.060;24.700;2022-09-04T04:02:30;97896.84;;;16.32;100.00
6094;BME280;19964;42.060;24.700;2022-09-04T04:07:55;97906.63;;;16.15;100.00
6094;BME280;19964;42.060;24.700;2022-09-04T04:10:26;97914.97;;;16.44;100.00
6094;BME280;19964;42.060;24.700;2022-09-04T04:15:45;97936.56;;;16.66;100.00
6094;BME280;19964;42.060;24.700;2022-09-04T04:18:32;97936.69;;;16.86;100.00
6094;BME280;19964;42.060;24.700;2022-09-04T04:21:05;97941.06;;;16.70;100.00
6094;BME280;19964;42.060;24.700;2022-09-04T04:23:43;97950.50;;;16.71;100.00
6094;BME280;19964;42.060;24.700;2022-09-04T04:26:14;97967.03;;;16.82;100.00
6094;BME280;19964;42.060;24.700;2022-09-04T04:31:39;97959.72;;;16.84;100.00
6094;BME280;19964;42.060;24.700;2022-09-04T04:34:15;97961.78;;;16.77;100.00
6094;BME280;19964;42.060;24.700;2022-09-04T04:36:47;97953.41;;;16.80;100.00
6094;BME280;19964;42.060;24.700;2022-09-04T04:39:18;97958.69;;;16.90;100.00
6094;BME280;19964;42.060;24.700;2022-09-04T04:41:56;97966.53;;;16.85;100.00
6094;BME280;19964;42.060;24.700;2022-09-04T04:44:31;97972.31;;;16.92;100.00
6094;BME280;19964;42.060;24.700;2022-09-04T04:47:19;97968.16;;;16.96;100.00
6094;BME280;19964;42.060;24.700;2022-09-04T04:49:53;97975.75;;;16.92;100.00
6094;BME280;19964;42.060;24.700;2022-09-04T04:52:25;97977.38;;;17.04;100.00
6094;BME280;19964;42.060;24.700;2022-09-04T04:55:05;97989.25;;;17.21;100.00
6094;BME280;19964;42.060;24.700;2022-09-04T04:57:47;97989.06;;;17.43;100.00
6094;BME280;19964;42.060;24.700;2022-09-04T05:00:19;97988.66;;;17.66;100.00
6094;BME280;19964;42.060;24.700;2022-09-04T05:02:52;97997.59;;;17.70;100.00
6094;BME280;19964;42.060;24.700;2022-09-04T05:05:39;97997.31;;;17.71;100.00
6094;BME280;19964;42.060;24.700;2022-09-04T05:08:13;97997.63;;;17.85;100.00
6094;BME280;19964;42.060;24.700;2022-09-04T05:10:44;98003.94;;;17.99;100.00
6094;BME280;19964;42.060;24.700;2022-09-04T05:13:14;98010.00;;;18.15;100.00
6094;BME280;19964;42.060;24.700;2022-09-04T05:15:42;98011.84;;;18.24;100.00
6094;BME280;19964;42.060;24.700;2022-09-04T05:18:15;98020.53;;;18.35;100.00
6094;BME280;19964;42.060;24.700;2022-09-04T05:20:46;98028.44;;;18.50;100.00
6094;BME280;19964;42.060;24.700;2022-09-04T05:23:20;98033.44;;;18.61;100.00
6094;BME280;19964;42.060;24.700;2022-09-04T05:25:51;98027.94;;;18.68;100.00
6094;BME280;19964;42.060;24.700;2022-09-04T05:28:21;98026.59;;;18.86;100.00
6094;BME280;19964;42.060;24.700;2022-09-04T05:30:50;98040.22;;;19.03;100.00
6094;BME280;19964;42.060;24.700;2022-09-04T05:33:20;98049.91;;;19.22;100.00
6094;BME280;19964;42.060;24.700;2022-09-04T05:35:49;98047.03;;;19.04;100.00
6094;BME280;19964;42.060;24.700;2022-09-04T05:38:19;98047.59;;;19.01;100.00
6094;BME280;19964;42.060;24.700;2022-09-04T05:40:56;98051.03;;;18.66;100.00
6094;BME280;19964;42.060;24.700;2022-09-04T05:43:28;98047.09;;;18.58;100.00
6094;BME280;19964;42.060;24.700;2022-09-04T05:46:01;98050.75;;;18.67;100.00
6094;BME280;19964;42.060;24.700;2022-09-04T05:48:32;98052.84;;;18.45;100.00
6094;BME280;19964;42.060;24.700;2022-09-04T05:51:10;98051.28;;;18.59;100.00
6094;BME280;19964;42.060;24.700;2022-09-04T05:53:42;98038.91;;;18.40;100.00
6094;BME280;19964;42.060;24.700;2022-09-04T05:56:27;98034.44;;;18.25;100.00
6094;BME280;19964;42.060;24.700;2022-09-04T05:59:05;98043.09;;;18.31;100.00
6094;BME280;19964;42.060;24.700;2022-09-04T06:01:47;98052.31;;;18.53;100.00
6094;BME280;19964;42.060;24.700;2022-09-04T06:07:07;98052.34;;;18.58;100.00
6094;BME280;19964;42.060;24.700;2022-09-04T06:09:38;98044.72;;;18.72;100.00
6094;BME280;19964;42.060;24.700;2022-09-04T06:12:15;98040.25;;;18.78;100.00
6094;BME280;19964;42.060;24.700;2022-09-04T06:14:50;98039.97;;;18.84;100.00
6094;BME280;19964;42.060;24.700;2022-09-04T06:17:27;98042.59;;;19.04;100.00
6094;BME280;19964;42.060;24.700;2022-09-04T06:20:02;98043.88;;;19.22;100.00
6094;BME280;19964;42.060;24.700;2022-09-04T06:22:44;98038.84;;;19.45;100.00
6094;BME280;19964;42.060;24.700;2022-09-04T06:25:23;98038.34;;;19.23;100.00
6094;BME280;19964;42.060;24.700;2022-09-04T06:28:10;98047.81;;;19.14;100.00
6094;BME280;19964;42.060;24.700;2022-09-04T06:30:42;98035.16;;;19.31;100.00
6094;BME280;19964;42.060;24.700;2022-09-04T06:33:15;98034.13;;;19.27;100.00
6094;BME280;19964;42.060;24.700;2022-09-04T06:35:54;98040.44;;;19.26;100.00
6094;BME280;19964;42.060;24.700;2022-09-04T06:38:32;98047.53;;;19.31;100.00
6094;BME280;19964;42.060;24.700;2022-09-04T06:41:12;98053.47;;;19.72;100.00
6094;BME280;19964;42.060;24.700;2022-09-04T06:43:46;98058.75;;;19.72;100.00
6094;BME280;19964;42.060;24.700;2022-09-04T06:46:18;98063.19;;;19.76;100.00
6094;BME280;19964;42.060;24.700;2022-09-04T06:48:52;98069.19;;;19.87;100.00
6094;BME280;19964;42.060;24.700;2022-09-04T06:51:28;98054.41;;;19.96;100.00
6094;BME280;19964;42.060;24.700;2022-09-04T06:54:08;98053.59;;;20.00;100.00
6094;BME280;19964;42.060;24.700;2022-09-04T06:56:48;98066.00;;;19.95;99.17
6094;BME280;19964;42.060;24.700;2022-09-04T06:59:25;98064.81;;;20.21;99.66
6094;BME280;19964;42.060;24.700;2022-09-04T07:02:00;98065.34;;;20.13;100.00
6094;BME280;19964;42.060;24.700;2022-09-04T07:04:37;98059.84;;;20.19;97.97
6094;BME280;19964;42.060;24.700;2022-09-04T07:07:11;98059.44;;;20.41;99.23
6094;BME280;19964;42.060;24.700;2022-09-04T07:09:43;98058.78;;;20.59;94.19
6094;BME280;19964;42.060;24.700;2022-09-04T07:12:20;98070.22;;;21.12;91.16
6094;BME280;19964;42.060;24.700;2022-09-04T07:18:16;98077.50;;;22.52;80.78
6094;BME280;19964;42.060;24.700;2022-09-04T07:20:58;98077.25;;;22.72;79.91
6094;BME280;19964;42.060;24.700;2022-09-04T07:23:36;98081.16;;;22.19;81.70
6094;BME280;19964;42.060;24.700;2022-09-04T07:26:13;98078.91;;;21.65;84.25
6094;BME280;19964;42.060;24.700;2022-09-04T07:28:52;98069.88;;;21.47;86.12
6094;BME280;19964;42.060;24.700;2022-09-04T07:31:24;98066.94;;;21.72;85.18
6094;BME280;19964;42.060;24.700;2022-09-04T07:33:56;98059.66;;;21.64;84.57
6094;BME280;19964;42.060;24.700;2022-09-04T07:36:30;98061.69;;;22.14;84.89
6094;BME280;19964;42.060;24.700;2022-09-04T07:39:05;98071.44;;;22.14;82.15
6094;BME280;19964;42.060;24.700;2022-09-04T07:41:37;98055.00;;;22.73;79.76
6094;BME280;19964;42.060;24.700;2022-09-04T07:44:12;98070.72;;;22.83;77.57
6094;BME280;19964;42.060;24.700;2022-09-04T07:46:44;98064.56;;;23.60;79.17
6094;BME280;19964;42.060;24.700;2022-09-04T07:49:14;98073.25;;;24.02;75.16
6094;BME280;19964;42.060;24.700;2022-09-04T07:51:58;98080.06;;;24.08;73.46
6094;BME280;19964;42.060;24.700;2022-09-04T07:54:36;98086.34;;;23.44;73.55
6094;BME280;19964;42.060;24.700;2022-09-04T07:57:14;98085.88;;;23.23;75.56
6094;BME280;19964;42.060;24.700;2022-09-04T08:02:36;98086.44;;;23.79;73.79
6094;BME280;19964;42.060;24.700;2022-09-04T08:05:17;98083.09;;;23.74;73.79
6094;BME280;19964;42.060;24.700;2022-09-04T08:07:59;98088.34;;;22.87;78.43
6094;BME280;19964;42.060;24.700;2022-09-04T08:10:31;98092.78;;;23.92;75.03
6094;BME280;19964;42.060;24.700;2022-09-04T08:13:12;98102.91;;;24.89;70.24
6094;BME280;19964;42.060;24.700;2022-09-04T08:15:48;98088.41;;;25.47;72.54
6094;BME280;19964;42.060;24.700;2022-09-04T08:21:11;98088.78;;;24.80;67.90
6094;BME280;19964;42.060;24.700;2022-09-04T08:23:50;98095.03;;;24.84;68.11
6094;BME280;19964;42.060;24.700;2022-09-04T08:26:28;98092.69;;;25.66;65.51
6094;BME280;19964;42.060;24.700;2022-09-04T08:29:01;98089.09;;;25.62;65.70
6094;BME280;19964;42.060;24.700;2022-09-04T08:31:36;98089.34;;;25.51;65.41
6094;BME280;19964;42.060;24.700;2022-09-04T08:34:12;98088.84;;;25.80;65.00
6094;BME280;19964;42.060;24.700;2022-09-04T08:36:42;98081.53;;;25.46;66.46
6094;BME280;19964;42.060;24.700;2022-09-04T08:39:15;98084.25;;;26.20;62.22
6094;BME280;19964;42.060;24.700;2022-09-04T08:44:59;98072.63;;;25.90;64.18
6094;BME280;19964;42.060;24.700;2022-09-04T08:50:51;98077.56;;;25.35;64.09
6094;BME280;19964;42.060;24.700;2022-09-04T08:53:52;98032.47;;;24.38;66.43
6094;BME280;19964;42.060;24.700;2022-09-04T08:56:31;98048.63;;;24.28;68.27
6094;BME280;19964;42.060;24.700;2022-09-04T09:05:37;98055.66;;;24.11;70.55
6094;BME280;19964;42.060;24.700;2022-09-04T09:11:16;98051.81;;;23.76;72.73
6094;BME280;19964;42.060;24.700;2022-09-04T09:14:04;98058.88;;;24.65;69.42
6094;BME280;19964;42.060;24.700;2022-09-04T09:16:43;98069.66;;;24.91;67.82
6094;BME280;19964;42.060;24.700;2022-09-04T09:19:17;98068.66;;;25.31;69.43
6094;BME280;19964;42.060;24.700;2022-09-04T09:21:55;98069.66;;;25.13;64.75
6094;BME280;19964;42.060;24.700;2022-09-04T09:24:39;98067.13;;;25.39;65.00
6094;BME280;19964;42.060;24.700;2022-09-04T09:27:13;98073.88;;;25.93;63.42
6094;BME280;19964;42.060;24.700;2022-09-04T09:29:55;98079.97;;;25.93;61.09
6094;BME280;19964;42.060;24.700;2022-09-04T09:32:48;98071.56;;;26.08;63.31
6094;BME280;19964;42.060;24.700;2022-09-04T09:35:31;98093.31;;;26.10;62.65
6094;BME280;19964;42.060;24.700;2022-09-04T09:44:02;98088.47;;;25.65;63.86
6094;BME280;19964;42.060;24.700;2022-09-04T09:46:39;98083.56;;;25.19;65.11
6094;BME280;19964;42.060;24.700;2022-09-04T09:52:17;98076.47;;;25.76;64.56
6094;BME280;19964;42.060;24.700;2022-09-04T09:55:01;98079.66;;;25.86;62.38
6094;BME280;19964;42.060;24.700;2022-09-04T09:57:34;98089.34;;;25.51;61.77
6094;BME280;19964;42.060;24.700;2022-09-04T10:00:11;98087.97;;;25.23;63.60
6094;BME280;19964;42.060;24.700;2022-09-04T10:08:29;98082.13;;;25.13;62.17
6094;BME280;19964;42.060;24.700;2022-09-04T10:11:17;98089.09;;;26.26;60.87
6094;BME280;19964;42.060;24.700;2022-09-04T10:13:51;98088.50;;;26.72;57.61
6094;BME280;19964;42.060;24.700;2022-09-04T10:16:42;98079.59;;;26.68;59.03
6094;BME280;19964;42.060;24.700;2022-09-04T10:25:05;98062.19;;;27.80;56.12
6094;BME280;19964;42.060;24.700;2022-09-04T10:28:21;98050.63;;;28.05;54.72
6094;BME280;19964;42.060;24.700;2022-09-04T10:39:53;98042.50;;;26.80;55.71
6094;BME280;19964;42.060;24.700;2022-09-04T10:42:48;98043.97;;;27.33;55.12
6094;BME280;19964;42.060;24.700;2022-09-04T10:45:27;98043.41;;;26.93;55.19
6094;BME280;19964;42.060;24.700;2022-09-04T10:54:01;98027.31;;;26.81;55.84
6094;BME280;19964;42.060;24.700;2022-09-04T10:56:35;98019.59;;;27.72;53.97
6094;BME280;19964;42.060;24.700;2022-09-04T10:59:20;98012.28;;;27.40;54.41
6094;BME280;19964;42.060;24.700;2022-09-04T11:04:55;98005.59;;;25.93;59.11
6094;BME280;19964;42.060;24.700;2022-09-04T11:10:16;97985.09;;;25.51;61.35
6094;BME280;19964;42.060;24.700;2022-09-04T11:12:53;97979.50;;;25.87;61.48
6094;BME280;19964;42.060;24.700;2022-09-04T11:15:28;97971.47;;;26.81;60.33
6094;BME280;19964;42.060;24.700;2022-09-04T11:21:10;97976.53;;;26.39;58.04
6094;BME280;19964;42.060;24.700;2022-09-04T11:23:59;97964.81;;;26.32;58.49
6094;BME280;19964;42.060;24.700;2022-09-04T11:29:29;97957.91;;;26.74;55.73
6094;BME280;19964;42.060;24.700;2022-09-04T11:34:54;97979.41;;;26.17;56.63
6094;BME280;19964;42.060;24.700;2022-09-04T11:40:21;97965.28;;;26.34;57.22
6094;BME280;19964;42.060;24.700;2022-09-04T11:42:58;97957.00;;;26.44;57.51
6094;BME280;19964;42.060;24.700;2022-09-04T11:48:30;97951.69;;;25.93;58.81
6094;BME280;19964;42.060;24.700;2022-09-04T11:51:13;97948.44;;;26.13;57.37
6094;BME280;19964;42.060;24.700;2022-09-04T11:53:50;97947.81;;;26.88;56.44
6094;BME280;19964;42.060;24.700;2022-09-04T11:56:47;97940.13;;;26.95;55.45
6094;BME280;19964;42.060;24.700;2022-09-04T11:59:22;97934.09;;;26.69;56.03
6094;BME280;19964;42.060;24.700;2022-09-04T12:02:05;97934.00;;;27.03;55.45
6094;BME280;19964;42.060;24.700;2022-09-04T12:04:45;97931.44;;;26.69;55.34
6094;BME280;19964;42.060;24.700;2022-09-04T12:07:28;97925.69;;;26.58;56.61
6094;BME280;19964;42.060;24.700;2022-09-04T12:10:03;97925.38;;;26.60;54.39
6094;BME280;19964;42.060;24.700;2022-09-04T12:12:36;97921.66;;;26.52;57.20
6094;BME280;19964;42.060;24.700;2022-09-04T12:15:26;97919.69;;;26.06;57.52
6094;BME280;19964;42.060;24.700;2022-09-04T12:20:53;97917.75;;;26.50;58.28
6094;BME280;19964;42.060;24.700;2022-09-04T12:26:21;97928.31;;;26.84;57.10
6094;BME280;19964;42.060;24.700;2022-09-04T12:29:05;97923.31;;;26.65;56.78
6094;BME280;19964;42.060;24.700;2022-09-04T12:34:30;97922.94;;;26.03;56.61
6094;BME280;19964;42.060;24.700;2022-09-04T12:37:07;97919.78;;;26.35;56.13
6094;BME280;19964;42.060;24.700;2022-09-04T12:42:37;97921.44;;;26.74;55.17
6094;BME280;19964;42.060;24.700;2022-09-04T12:45:10;97908.44;;;26.09;56.75
6094;BME280;19964;42.060;24.700;2022-09-04T12:47:44;97918.94;;;26.06;56.66
6094;BME280;19964;42.060;24.700;2022-09-04T12:50:28;97918.44;;;26.12;56.44
6094;BME280;19964;42.060;24.700;2022-09-04T12:53:02;97917.50;;;26.17;54.87
6094;BME280;19964;42.060;24.700;2022-09-04T12:55:33;97921.25;;;25.90;55.15
6094;BME280;19964;42.060;24.700;2022-09-04T12:58:08;97910.94;;;26.14;56.81
6094;BME280;19964;42.060;24.700;2022-09-04T13:00:38;97919.34;;;25.48;58.44
6094;BME280;19964;42.060;24.700;2022-09-04T13:03:10;97913.81;;;25.27;60.31
6094;BME280;19964;42.060;24.700;2022-09-04T13:05:48;97912.22;;;25.09;60.31
6094;BME280;19964;42.060;24.700;2022-09-04T13:08:20;97911.56;;;25.12;60.09
6094;BME280;19964;42.060;24.700;2022-09-04T13:10:54;97910.34;;;25.18;61.18
6094;BME280;19964;42.060;24.700;2022-09-04T13:13:27;97915.50;;;25.15;59.50
6094;BME280;19964;42.060;24.700;2022-09-04T13:16:00;97914.56;;;25.28;59.29
6094;BME280;19964;42.060;24.700;2022-09-04T13:18:34;97916.00;;;25.34;59.28
6094;BME280;19964;42.060;24.700;2022-09-04T13:21:12;97899.25;;;25.16;58.67
6094;BME280;19964;42.060;24.700;2022-09-04T13:26:32;97891.50;;;25.37;59.13
6094;BME280;19964;42.060;24.700;2022-09-04T13:29:05;97894.63;;;25.22;58.53
6094;BME280;19964;42.060;24.700;2022-09-04T13:31:54;97894.00;;;25.25;59.07
6094;BME280;19964;42.060;24.700;2022-09-04T13:34:27;97895.78;;;24.99;58.96
6094;BME280;19964;42.060;24.700;2022-09-04T13:37:01;97899.38;;;24.94;57.76
6094;BME280;19964;42.060;24.700;2022-09-04T13:39:38;97900.41;;;24.76;59.51
6094;BME280;19964;42.060;24.700;2022-09-04T13:45:02;97902.25;;;24.76;60.44
6094;BME280;19964;42.060;24.700;2022-09-04T13:47:35;97909.97;;;24.94;59.21
6094;BME280;19964;42.060;24.700;2022-09-04T13:50:05;97907.19;;;24.99;59.99
6094;BME280;19964;42.060;24.700;2022-09-04T13:52:35;97906.63;;;25.19;61.31
6094;BME280;19964;42.060;24.700;2022-09-04T13:55:06;97907.84;;;25.13;61.64
6094;BME280;19964;42.060;24.700;2022-09-04T13:57:38;97920.22;;;25.35;61.19
6094;BME280;19964;42.060;24.700;2022-09-04T14:00:08;97909.41;;;25.14;62.92
6094;BME280;19964;42.060;24.700;2022-09-04T14:02:36;97907.00;;;24.96;61.11
6094;BME280;19964;42.060;24.700;2022-09-04T14:05:05;97913.56;;;24.67;61.14
6094;BME280;19964;42.060;24.700;2022-09-04T14:07:34;97910.31;;;24.70;61.08
6094;BME280;19964;42.060;24.700;2022-09-04T14:10:04;97910.16;;;24.67;60.94
6094;BME280;19964;42.060;24.700;2022-09-04T14:12:37;97902.41;;;24.48;61.84
6094;BME280;19964;42.060;24.700;2022-09-04T14:15:20;97830.41;;;24.16;61.51
6094;BME280;19964;42.060;24.700;2022-09-04T14:17:54;97894.81;;;24.55;61.06
6094;BME280;19964;42.060;24.700;2022-09-04T14:20:27;97902.22;;;24.67;59.87
6094;BME280;19964;42.060;24.700;2022-09-04T14:23:00;97904.97;;;24.62;59.75
6094;BME280;19964;42.060;24.700;2022-09-04T14:25:31;97901.56;;;24.61;59.28
6094;BME280;19964;42.060;24.700;2022-09-04T14:28:05;97892.59;;;24.80;60.41
6094;BME280;19964;42.060;24.700;2022-09-04T14:30:40;97902.94;;;24.59;58.91
6094;BME280;19964;42.060;24.700;2022-09-04T14:33:12;97899.16;;;24.51;58.81
6094;BME280;19964;42.060;24.700;2022-09-04T14:35:45;97901.09;;;24.68;58.46
6094;BME280;19964;42.060;24.700;2022-09-04T14:41:03;97881.38;;;24.52;59.71
6094;BME280;19964;42.060;24.700;2022-09-04T14:43:36;97889.34;;;24.83;59.98
6094;BME280;19964;42.060;24.700;2022-09-04T14:46:11;97889.31;;;24.74;59.60
6094;BME280;19964;42.060;24.700;2022-09-04T14:48:41;97902.94;;;24.90;59.79
6094;BME280;19964;42.060;24.700;2022-09-04T14:51:10;97907.06;;;25.04;59.50
6094;BME280;19964;42.060;24.700;2022-09-04T14:53:39;97900.56;;;25.36;60.74
6094;BME280;19964;42.060;24.700;2022-09-04T14:56:14;97906.84;;;25.40;60.05
6094;BME280;19964;42.060;24.700;2022-09-04T14:58:44;97907.44;;;25.37;59.12
6094;BME280;19964;42.060;24.700;2022-09-04T15:01:18;97920.81;;;25.23;59.64
6094;BME280;19964;42.060;24.700;2022-09-04T15:03:45;97915.66;;;24.79;60.57
6094;BME280;19964;42.060;24.700;2022-09-04T15:06:15;97921.19;;;24.91;59.42
6094;BME280;19964;42.060;24.700;2022-09-04T15:08:44;97911.00;;;24.76;59.53
6094;BME280;19964;42.060;24.700;2022-09-04T15:11:24;97898.94;;;24.70;60.27
6094;BME280;19964;42.060;24.700;2022-09-04T15:13:52;97901.50;;;24.53;60.80
6094;BME280;19964;42.060;24.700;2022-09-04T15:16:25;97890.16;;;24.61;60.91
6094;BME280;19964;42.060;24.700;2022-09-04T15:18:54;97906.50;;;24.54;59.97
6094;BME280;19964;42.060;24.700;2022-09-04T15:21:27;97907.88;;;24.52;60.97
6094;BME280;19964;42.060;24.700;2022-09-04T15:23:59;97911.97;;;24.27;62.07
6094;BME280;19964;42.060;24.700;2022-09-04T15:26:29;97910.59;;;24.30;62.54
6094;BME280;19964;42.060;24.700;2022-09-04T15:29:00;97909.31;;;24.27;61.00
6094;BME280;19964;42.060;24.700;2022-09-04T15:31:30;97899.50;;;24.06;61.37
6094;BME280;19964;42.060;24.700;2022-09-04T15:33:58;97897.03;;;23.87;61.62